sensor_id;sensor_type;location;lat;lon;timestamp;pressure;altitude;pressure_sealevel;temperature;humidity
17060;BME280;8646;49.716;9.266;2023-05-10T00:01:48;99515.03;;;16.60;100.00
17060;BME280;8646;49.716;9.266;2023-05-10T00:04:52;99515.03;;;16.60;100.00
17060;BME280;8646;49.716;9.266;2023-05-10T00:07:54;99505.22;;;16.57;100.00
17060;BME280;8646;49.716;9.266;2023-05-10T00:10:57;99513.53;;;16.56;100.00
17060;BME280;8646;49.716;9.266;2023-05-10T00:14:01;99514.00;;;16.50;100.00
17060;BME280;8646;49.716;9.266;2023-05-10T00:17:04;99521.72;;;16.56;100.00
17060;BME280;8646;49.716;9.266;2023-05-10T00:20:08;99531.66;;;16.57;100.00
17060;BME280;8646;49.716;9.266;2023-05-10T00:23:10;99524.31;;;16.35;100.00
17060;BME280;8646;49.716;9.266;2023-05-10T00:26:13;99525.13;;;16.24;100.00
17060;BME280;8646;49.716;9.266;2023-05-10T00:29:21;99527.84;;;16.13;100.00
17060;BME280;8646;49.716;9.266;2023-05-10T00:32:24;99528.09;;;16.10;100.00
17060;BME280;8646;49.716;9.266;2023-05-10T00:35:27;99530.81;;;16.10;100.00
17060;BME280;8646;49.716;9.266;2023-05-10T00:38:30;99530.16;;;16.07;100.00
17060;BME280;8646;49.716;9.266;2023-05-10T00:41:33;99526.22;;;16.11;100.00
17060;BME280;8646;49.716;9.266;2023-05-10T00:44:37;99540.97;;;16.08;100.00
17060;BME280;8646;49.716;9.266;2023-05-10T00:47:40;99538.34;;;15.95;100.00
17060;BME280;8646;49.716;9.266;2023-05-10T00:50:43;99540.94;;;15.97;99.95
17060;BME280;8646;49.716;9.266;2023-05-10T00:53:46;99546.56;;;15.83;100.00
17060;BME280;8646;49.716;9.266;2023-05-10T00:56:51;99551.59;;;15.89;100.00
17060;BME280;8646;49.716;9.266;2023-05-10T00:59:55;99544.50;;;15.86;99.71
17060;BME280;8646;49.716;9.266;2023-05-10T01:03:01;99544.31;;;15.77;99.32
17060;BME280;8646;49.716;9.266;2023-05-10T01:06:05;99558.44;;;15.71;99.65
17060;BME280;8646;49.716;9.266;2023-05-10T01:09:08;99549.38;;;15.70;99.32
17060;BME280;8646;49.716;9.266;2023-05-10T01:12:12;99556.81;;;15.68;98.73
17060;BME280;8646;49.716;9.266;2023-05-10T01:15:20;99553.19;;;15.68;98.50
17060;BME280;8646;49.716;9.266;2023-05-10T01:18:23;99558.91;;;15.64;98.08
17060;BME280;8646;49.716;9.266;2023-05-10T01:21:33;99561.09;;;15.59;98.20
17060;BME280;8646;49.716;9.266;2023-05-10T01:28:36;99564.47;;;15.50;97.99
17060;BME280;8646;49.716;9.266;2023-05-10T01:35:29;99557.84;;;15.54;97.19
17060;BME280;8646;49.716;9.266;2023-05-10T01:38:39;99564.94;;;15.44;97.23
17060;BME280;8646;49.716;9.266;2023-05-10T01:41:49;99568.31;;;15.48;97.27
17060;BME280;8646;49.716;9.266;2023-05-10T01:44:58;99565.91;;;15.43;96.87
17060;BME280;8646;49.716;9.266;2023-05-10T01:48:06;99564.41;;;15.39;96.49
17060;BME280;8646;49.716;9.266;2023-05-10T01:51:10;99574.66;;;15.36;96.71
17060;BME280;8646;49.716;9.266;2023-05-10T01:54:14;99560.09;;;15.24;96.32
17060;BME280;8646;49.716;9.266;2023-05-10T01:57:22;99574.25;;;15.29;96.50
17060;BME280;8646;49.716;9.266;2023-05-10T02:00:28;99574.16;;;15.31;96.30
17060;BME280;8646;49.716;9.266;2023-05-10T02:03:35;99572.50;;;15.28;96.37
17060;BME280;8646;49.716;9.266;2023-05-10T02:06:45;99573.38;;;15.28;95.94
17060;BME280;8646;49.716;9.266;2023-05-10T02:09:49;99579.50;;;15.19;96.16
17060;BME280;8646;49.716;9.266;2023-05-10T02:12:53;99586.28;;;15.14;96.09
17060;BME280;8646;49.716;9.266;2023-05-10T02:15:57;99587.72;;;15.07;96.31
17060;BME280;8646;49.716;9.266;2023-05-10T02:19:06;99592.19;;;15.08;96.49
17060;BME280;8646;49.716;9.266;2023-05-10T02:22:11;99592.59;;;15.14;96.36
17060;BME280;8646;49.716;9.266;2023-05-10T02:25:15;99590.84;;;15.13;96.33
17060;BME280;8646;49.716;9.266;2023-05-10T02:28:19;99571.94;;;14.99;96.65
17060;BME280;8646;49.716;9.266;2023-05-10T02:31:23;99599.91;;;15.14;96.45
17060;BME280;8646;49.716;9.266;2023-05-10T02:34:28;99592.72;;;15.13;96.05
17060;BME280;8646;49.716;9.266;2023-05-10T02:37:33;99602.84;;;15.11;95.85
17060;BME280;8646;49.716;9.266;2023-05-10T02:40:37;99597.06;;;15.03;95.82
17060;BME280;8646;49.716;9.266;2023-05-10T02:43:41;99599.38;;;14.96;96.28
17060;BME280;8646;49.716;9.266;2023-05-10T02:46:44;99596.75;;;14.95;96.22
17060;BME280;8646;49.716;9.266;2023-05-10T02:49:48;99597.75;;;14.81;96.51
17060;BME280;8646;49.716;9.266;2023-05-10T02:52:54;99578.91;;;14.65;96.30
17060;BME280;8646;49.716;9.266;2023-05-10T02:56:00;99604.19;;;14.80;96.51
17060;BME280;8646;49.716;9.266;2023-05-10T02:59:05;99605.94;;;14.81;96.16
17060;BME280;8646;49.716;9.266;2023-05-10T03:02:08;99602.22;;;14.82;96.23
17060;BME280;8646;49.716;9.266;2023-05-10T03:05:12;99602.97;;;14.71;96.96
17060;BME280;8646;49.716;9.266;2023-05-10T03:08:16;99618.97;;;14.76;96.93
17060;BME280;8646;49.716;9.266;2023-05-10T03:11:32;99614.22;;;14.79;96.68
17060;BME280;8646;49.716;9.266;2023-05-10T03:14:57;99610.31;;;14.83;96.45
17060;BME280;8646;49.716;9.266;2023-05-10T03:18:07;99617.25;;;14.87;96.42
17060;BME280;8646;49.716;9.266;2023-05-10T03:21:13;99618.13;;;14.88;96.63
17060;BME280;8646;49.716;9.266;2023-05-10T03:24:21;99615.94;;;14.93;96.30
17060;BME280;8646;49.716;9.266;2023-05-10T03:27:26;99618.22;;;14.86;96.42
17060;BME280;8646;49.716;9.266;2023-05-10T03:30:30;99620.75;;;14.89;96.79
17060;BME280;8646;49.716;9.266;2023-05-10T03:33:33;99619.88;;;14.89;96.71
17060;BME280;8646;49.716;9.266;2023-05-10T03:36:38;99632.41;;;14.92;96.84
17060;BME280;8646;49.716;9.266;2023-05-10T03:39:41;99629.69;;;14.92;96.89
17060;BME280;8646;49.716;9.266;2023-05-10T03:42:44;99628.69;;;14.93;96.98
17060;BME280;8646;49.716;9.266;2023-05-10T03:45:46;99639.38;;;14.96;96.68
17060;BME280;8646;49.716;9.266;2023-05-10T03:48:49;99644.72;;;14.97;96.64
17060;BME280;8646;49.716;9.266;2023-05-10T03:51:56;99639.38;;;14.96;96.54
17060;BME280;8646;49.716;9.266;2023-05-10T03:54:58;99639.38;;;14.96;96.64
17060;BME280;8646;49.716;9.266;2023-05-10T03:58:01;99639.47;;;14.94;96.51
17060;BME280;8646;49.716;9.266;2023-05-10T04:01:04;99640.44;;;14.93;96.59
17060;BME280;8646;49.716;9.266;2023-05-10T04:04:07;99642.09;;;14.96;96.61
17060;BME280;8646;49.716;9.266;2023-05-10T04:07:11;99641.13;;;14.97;96.55
17060;BME280;8646;49.716;9.266;2023-05-10T04:10:14;99643.19;;;14.93;96.74
17060;BME280;8646;49.716;9.266;2023-05-10T04:13:18;99643.63;;;15.00;96.15
17060;BME280;8646;49.716;9.266;2023-05-10T04:16:21;99640.59;;;14.92;96.50
17060;BME280;8646;49.716;9.266;2023-05-10T04:19:24;99643.41;;;14.90;96.82
17060;BME280;8646;49.716;9.266;2023-05-10T04:22:28;99649.28;;;14.97;96.39
17060;BME280;8646;49.716;9.266;2023-05-10T04:25:33;99654.53;;;15.00;96.75
17060;BME280;8646;49.716;9.266;2023-05-10T04:28:36;99663.03;;;15.08;96.16
17060;BME280;8646;49.716;9.266;2023-05-10T04:31:39;99659.00;;;15.13;96.02
17060;BME280;8646;49.716;9.266;2023-05-10T04:34:42;99664.34;;;15.15;96.08
17060;BME280;8646;49.716;9.266;2023-05-10T04:37:46;99663.22;;;15.17;96.17
17060;BME280;8646;49.716;9.266;2023-05-10T04:40:48;99667.38;;;15.23;96.29
17060;BME280;8646;49.716;9.266;2023-05-10T04:43:51;99664.41;;;15.26;95.84
17060;BME280;8646;49.716;9.266;2023-05-10T04:46:54;99673.25;;;15.30;96.12
17060;BME280;8646;49.716;9.266;2023-05-10T04:49:57;99673.00;;;15.33;95.74
17060;BME280;8646;49.716;9.266;2023-05-10T04:53:01;99673.16;;;15.31;96.16
17060;BME280;8646;49.716;9.266;2023-05-10T04:56:04;99679.88;;;15.25;96.15
17060;BME280;8646;49.716;9.266;2023-05-10T04:59:07;99683.72;;;15.23;96.29
17060;BME280;8646;49.716;9.266;2023-05-10T05:02:10;99682.50;;;15.27;96.77
17060;BME280;8646;49.716;9.266;2023-05-10T05:05:13;99688.28;;;15.35;96.97
17060;BME280;8646;49.716;9.266;2023-05-10T05:08:17;99687.31;;;15.36;97.27
17060;BME280;8646;49.716;9.266;2023-05-10T05:11:19;99688.06;;;15.38;97.18
17060;BME280;8646;49.716;9.266;2023-05-10T05:14:23;99673.00;;;15.33;97.21
17060;BME280;8646;49.716;9.266;2023-05-10T05:17:26;99688.50;;;15.45;97.24
17060;BME280;8646;49.716;9.266;2023-05-10T05:20:31;99698.31;;;15.47;97.15
17060;BME280;8646;49.716;9.266;2023-05-10T05:23:35;99697.19;;;15.50;97.49
17060;BME280;8646;49.716;9.266;2023-05-10T05:26:38;99696.13;;;15.52;97.69
17060;BME280;8646;49.716;9.266;2023-05-10T05:29:41;99705.00;;;15.56;97.33
17060;BME280;8646;49.716;9.266;2023-05-10T05:32:44;99713.34;;;15.53;96.46
17060;BME280;8646;49.716;9.266;2023-05-10T05:35:48;99712.47;;;15.52;96.47
17060;BME280;8646;49.716;9.266;2023-05-10T05:38:53;99715.19;;;15.52;96.23
17060;BME280;8646;49.716;9.266;2023-05-10T05:41:56;99708.59;;;15.56;95.96
17060;BME280;8646;49.716;9.266;2023-05-10T05:45:07;99708.34;;;15.59;95.26
17060;BME280;8646;49.716;9.266;2023-05-10T05:48:10;99717.19;;;15.63;95.13
17060;BME280;8646;49.716;9.266;2023-05-10T05:51:15;99722.28;;;15.68;94.55
17060;BME280;8646;49.716;9.266;2023-05-10T05:54:19;99722.84;;;15.73;94.01
17060;BME280;8646;49.716;9.266;2023-05-10T05:57:23;99722.72;;;15.74;93.69
17060;BME280;8646;49.716;9.266;2023-05-10T06:00:26;99732.75;;;15.74;93.21
17060;BME280;8646;49.716;9.266;2023-05-10T06:03:31;99729.28;;;15.72;93.54
17060;BME280;8646;49.716;9.266;2023-05-10T06:06:37;99732.75;;;15.74;92.96
17060;BME280;8646;49.716;9.266;2023-05-10T06:09:41;99728.63;;;15.81;92.58
17060;BME280;8646;49.716;9.266;2023-05-10T06:12:44;99731.66;;;15.89;91.96
17060;BME280;8646;49.716;9.266;2023-05-10T06:15:54;99733.16;;;15.93;91.21
17060;BME280;8646;49.716;9.266;2023-05-10T06:18:58;99744.84;;;15.95;90.80
17060;BME280;8646;49.716;9.266;2023-05-10T06:22:03;99738.81;;;16.02;90.25
17060;BME280;8646;49.716;9.266;2023-05-10T06:25:10;99744.00;;;16.18;89.67
17060;BME280;8646;49.716;9.266;2023-05-10T06:28:13;99744.38;;;16.37;88.61
17060;BME280;8646;49.716;9.266;2023-05-10T06:31:16;99748.00;;;16.62;87.53
17060;BME280;8646;49.716;9.266;2023-05-10T06:34:22;99739.63;;;16.87;86.32
17060;BME280;8646;49.716;9.266;2023-05-10T06:37:25;99744.56;;;17.17;84.96
17060;BME280;8646;49.716;9.266;2023-05-10T06:40:29;99736.41;;;17.50;83.49
17060;BME280;8646;49.716;9.266;2023-05-10T06:43:31;99729.22;;;17.72;82.74
17060;BME280;8646;49.716;9.266;2023-05-10T06:46:34;99729.47;;;17.91;82.22
17060;BME280;8646;49.716;9.266;2023-05-10T06:49:37;99720.47;;;18.11;81.16
17060;BME280;8646;49.716;9.266;2023-05-10T06:52:43;99721.91;;;18.26;80.60
17060;BME280;8646;49.716;9.266;2023-05-10T06:55:47;99719.03;;;18.39;79.92
17060;BME280;8646;49.716;9.266;2023-05-10T06:58:51;99719.84;;;18.51;78.75
17060;BME280;8646;49.716;9.266;2023-05-10T07:01:54;99720.53;;;18.75;77.77
17060;BME280;8646;49.716;9.266;2023-05-10T07:04:57;99721.47;;;19.06;76.09
17060;BME280;8646;49.716;9.266;2023-05-10T07:08:03;99716.19;;;19.56;73.86
17060;BME280;8646;49.716;9.266;2023-05-10T07:11:07;99711.72;;;19.95;72.92
17060;BME280;8646;49.716;9.266;2023-05-10T07:14:10;99713.78;;;20.02;72.19
17060;BME280;8646;49.716;9.266;2023-05-10T07:17:13;99711.69;;;19.85;69.59
17060;BME280;8646;49.716;9.266;2023-05-10T07:20:16;99711.06;;;19.72;70.01
17060;BME280;8646;49.716;9.266;2023-05-10T07:23:19;99710.69;;;19.56;70.32
17060;BME280;8646;49.716;9.266;2023-05-10T07:26:23;99721.22;;;19.51;71.29
17060;BME280;8646;49.716;9.266;2023-05-10T07:29:26;99729.63;;;19.38;72.01
17060;BME280;8646;49.716;9.266;2023-05-10T07:32:29;99726.66;;;19.20;71.91
17060;BME280;8646;49.716;9.266;2023-05-10T07:35:33;99733.53;;;18.94;72.26
17060;BME280;8646;49.716;9.266;2023-05-10T07:38:40;99730.91;;;18.72;72.99
17060;BME280;8646;49.716;9.266;2023-05-10T07:41:49;99727.66;;;18.66;73.83
17060;BME280;8646;49.716;9.266;2023-05-10T07:44:51;99730.16;;;18.70;73.55
17060;BME280;8646;49.716;9.266;2023-05-10T07:47:54;99727.06;;;18.63;73.90
17060;BME280;8646;49.716;9.266;2023-05-10T07:51:00;99738.53;;;18.57;74.40
17060;BME280;8646;49.716;9.266;2023-05-10T07:54:04;99744.88;;;18.57;74.55
17060;BME280;8646;49.716;9.266;2023-05-10T07:57:09;99733.56;;;18.62;74.35
17060;BME280;8646;49.716;9.266;2023-05-10T08:00:13;99740.59;;;18.76;74.12
17060;BME280;8646;49.716;9.266;2023-05-10T08:03:19;99741.53;;;18.86;72.80
17060;BME280;8646;49.716;9.266;2023-05-10T08:06:22;99746.38;;;18.93;72.83
17060;BME280;8646;49.716;9.266;2023-05-10T08:09:25;99740.97;;;19.03;72.30
17060;BME280;8646;49.716;9.266;2023-05-10T08:12:29;99742.75;;;19.14;71.74
17060;BME280;8646;49.716;9.266;2023-05-10T08:15:33;99746.56;;;19.22;71.54
17060;BME280;8646;49.716;9.266;2023-05-10T08:18:35;99748.38;;;19.33;70.98
17060;BME280;8646;49.716;9.266;2023-05-10T08:21:41;99746.19;;;19.48;70.92
17060;BME280;8646;49.716;9.266;2023-05-10T08:24:44;99749.72;;;19.59;70.10
17060;BME280;8646;49.716;9.266;2023-05-10T08:27:48;99754.09;;;19.62;69.60
17060;BME280;8646;49.716;9.266;2023-05-10T08:30:54;99755.38;;;19.47;68.93
17060;BME280;8646;49.716;9.266;2023-05-10T08:33:57;99752.72;;;19.35;69.53
17060;BME280;8646;49.716;9.266;2023-05-10T08:36:59;99750.13;;;19.34;68.37
17060;BME280;8646;49.716;9.266;2023-05-10T08:40:03;99761.34;;;19.31;69.40
17060;BME280;8646;49.716;9.266;2023-05-10T08:43:10;99734.53;;;19.34;68.48
17060;BME280;8646;49.716;9.266;2023-05-10T08:46:16;99757.53;;;19.64;67.78
17060;BME280;8646;49.716;9.266;2023-05-10T08:49:20;99757.31;;;19.76;66.85
17060;BME280;8646;49.716;9.266;2023-05-10T08:52:25;99762.00;;;19.95;65.46
17060;BME280;8646;49.716;9.266;2023-05-10T08:55:29;99758.88;;;20.00;64.12
17060;BME280;8646;49.716;9.266;2023-05-10T08:58:41;99767.97;;;20.00;64.14
17060;BME280;8646;49.716;9.266;2023-05-10T09:01:44;99769.75;;;20.20;64.17
17060;BME280;8646;49.716;9.266;2023-05-10T09:04:49;99770.59;;;20.42;63.68
17060;BME280;8646;49.716;9.266;2023-05-10T09:07:55;99770.59;;;20.51;62.79
17060;BME280;8646;49.716;9.266;2023-05-10T09:10:58;99773.88;;;20.36;62.52
17060;BME280;8646;49.716;9.266;2023-05-10T09:14:03;99770.34;;;20.14;63.04
17060;BME280;8646;49.716;9.266;2023-05-10T09:17:05;99775.47;;;19.98;62.90
17060;BME280;8646;49.716;9.266;2023-05-10T09:20:10;99757.72;;;19.72;63.63
17060;BME280;8646;49.716;9.266;2023-05-10T09:23:13;99779.88;;;19.80;63.66
17060;BME280;8646;49.716;9.266;2023-05-10T09:26:16;99783.78;;;19.77;63.97
17060;BME280;8646;49.716;9.266;2023-05-10T09:29:38;99787.03;;;19.71;62.35
17060;BME280;8646;49.716;9.266;2023-05-10T09:32:42;99757.41;;;19.44;62.09
17060;BME280;8646;49.716;9.266;2023-05-10T09:35:46;99785.09;;;19.62;62.50
17060;BME280;8646;49.716;9.266;2023-05-10T09:38:49;99785.91;;;19.74;62.89
17060;BME280;8646;49.716;9.266;2023-05-10T09:41:53;99789.81;;;20.02;62.50
17060;BME280;8646;49.716;9.266;2023-05-10T09:45:02;99792.66;;;20.31;62.34
17060;BME280;8646;49.716;9.266;2023-05-10T09:48:05;99780.16;;;20.47;62.65
17060;BME280;8646;49.716;9.266;2023-05-10T09:51:08;99781.19;;;20.56;61.50
17060;BME280;8646;49.716;9.266;2023-05-10T09:54:13;99785.66;;;20.57;61.43
17060;BME280;8646;49.716;9.266;2023-05-10T09:57:19;99789.69;;;20.53;60.45
17060;BME280;8646;49.716;9.266;2023-05-10T10:00:34;99788.13;;;20.60;60.71
17060;BME280;8646;49.716;9.266;2023-05-10T10:03:44;99781.66;;;20.80;59.52
17060;BME280;8646;49.716;9.266;2023-05-10T10:06:58;99783.97;;;20.94;58.82
17060;BME280;8646;49.716;9.266;2023-05-10T10:10:01;99770.06;;;21.15;58.61
17060;BME280;8646;49.716;9.266;2023-05-10T10:13:07;99772.69;;;21.36;57.86
17060;BME280;8646;49.716;9.266;2023-05-10T10:16:11;99760.50;;;21.48;56.83
17060;BME280;8646;49.716;9.266;2023-05-10T10:19:14;99766.53;;;21.71;55.79
17060;BME280;8646;49.716;9.266;2023-05-10T10:22:17;99761.66;;;21.92;55.00
17060;BME280;8646;49.716;9.266;2023-05-10T10:25:21;99752.75;;;22.08;54.69
17060;BME280;8646;49.716;9.266;2023-05-10T10:28:29;99759.50;;;22.23;54.12
17060;BME280;8646;49.716;9.266;2023-05-10T10:31:39;99752.81;;;22.26;53.54
17060;BME280;8646;49.716;9.266;2023-05-10T10:34:43;99745.91;;;22.39;52.66
17060;BME280;8646;49.716;9.266;2023-05-10T10:37:47;99744.19;;;22.38;51.89
17060;BME280;8646;49.716;9.266;2023-05-10T10:41:01;99738.81;;;22.19;51.96
17060;BME280;8646;49.716;9.266;2023-05-10T10:44:35;99748.03;;;22.00;52.48
17060;BME280;8646;49.716;9.266;2023-05-10T10:47:41;99742.91;;;21.59;51.98
17060;BME280;8646;49.716;9.266;2023-05-10T10:50:45;99758.91;;;21.36;52.77
17060;BME280;8646;49.716;9.266;2023-05-10T10:53:48;99760.53;;;21.19;52.05
17060;BME280;8646;49.716;9.266;2023-05-10T10:57:11;99756.50;;;21.23;52.33
17060;BME280;8646;49.716;9.266;2023-05-10T11:00:26;99762.53;;;21.46;51.72
17060;BME280;8646;49.716;9.266;2023-05-10T11:03:31;99773.81;;;21.53;51.67
17060;BME280;8646;49.716;9.266;2023-05-10T11:06:35;99791.81;;;21.28;52.18
17060;BME280;8646;49.716;9.266;2023-05-10T11:09:39;99799.59;;;21.13;52.82
17060;BME280;8646;49.716;9.266;2023-05-10T11:12:51;99791.03;;;21.16;53.36
17060;BME280;8646;49.716;9.266;2023-05-10T11:15:54;99786.03;;;21.31;53.63
17060;BME280;8646;49.716;9.266;2023-05-10T11:19:02;99786.41;;;21.55;53.00
17060;BME280;8646;49.716;9.266;2023-05-10T11:22:12;99795.47;;;21.75;51.88
17060;BME280;8646;49.716;9.266;2023-05-10T11:25:15;99788.94;;;21.86;51.24
17060;BME280;8646;49.716;9.266;2023-05-10T11:28:18;99801.66;;;21.96;51.36
17060;BME280;8646;49.716;9.266;2023-05-10T11:31:22;99805.88;;;22.00;51.13
17060;BME280;8646;49.716;9.266;2023-05-10T11:34:30;99796.13;;;22.06;50.87
17060;BME280;8646;49.716;9.266;2023-05-10T11:37:35;99805.84;;;22.10;50.63
17060;BME280;8646;49.716;9.266;2023-05-10T11:40:39;99807.38;;;22.22;50.45
17060;BME280;8646;49.716;9.266;2023-05-10T11:43:42;99812.97;;;22.30;50.50
17060;BME280;8646;49.716;9.266;2023-05-10T11:46:48;99816.78;;;22.29;50.58
17060;BME280;8646;49.716;9.266;2023-05-10T11:49:53;99822.75;;;22.25;51.25
17060;BME280;8646;49.716;9.266;2023-05-10T11:52:56;99829.69;;;22.29;51.42
17060;BME280;8646;49.716;9.266;2023-05-10T11:56:03;99823.31;;;22.28;52.07
17060;BME280;8646;49.716;9.266;2023-05-10T11:59:06;99827.81;;;22.29;52.52
17060;BME280;8646;49.716;9.266;2023-05-10T12:02:10;99821.72;;;22.26;53.22
17060;BME280;8646;49.716;9.266;2023-05-10T12:05:14;99835.25;;;22.19;53.07
17060;BME280;8646;49.716;9.266;2023-05-10T12:08:20;99831.47;;;22.20;52.97
17060;BME280;8646;49.716;9.266;2023-05-10T12:11:25;99834.53;;;22.17;52.06
17060;BME280;8646;49.716;9.266;2023-05-10T12:14:28;99830.94;;;22.07;52.00
17060;BME280;8646;49.716;9.266;2023-05-10T12:17:37;99832.41;;;22.01;51.41
17060;BME280;8646;49.716;9.266;2023-05-10T12:20:44;99826.44;;;22.06;50.92
17060;BME280;8646;49.716;9.266;2023-05-10T12:23:49;99829.66;;;22.01;50.49
17060;BME280;8646;49.716;9.266;2023-05-10T12:26:52;99832.88;;;21.97;49.99
17060;BME280;8646;49.716;9.266;2023-05-10T12:29:55;99829.50;;;21.93;49.88
17060;BME280;8646;49.716;9.266;2023-05-10T12:33:00;99831.88;;;21.79;49.30
17060;BME280;8646;49.716;9.266;2023-05-10T12:36:06;99838.41;;;21.58;49.84
17060;BME280;8646;49.716;9.266;2023-05-10T12:39:09;99833.50;;;21.33;49.58
17060;BME280;8646;49.716;9.266;2023-05-10T12:42:13;99839.00;;;21.14;50.34
17060;BME280;8646;49.716;9.266;2023-05-10T12:45:17;99843.91;;;21.10;50.53
17060;BME280;8646;49.716;9.266;2023-05-10T12:48:20;99834.78;;;21.10;50.39
17060;BME280;8646;49.716;9.266;2023-05-10T12:51:24;99836.97;;;21.06;50.48
17060;BME280;8646;49.716;9.266;2023-05-10T12:54:27;99836.22;;;21.04;50.87
17060;BME280;8646;49.716;9.266;2023-05-10T12:57:30;99851.31;;;21.19;50.51
17060;BME280;8646;49.716;9.266;2023-05-10T13:00:33;99839.91;;;21.24;50.64
17060;BME280;8646;49.716;9.266;2023-05-10T13:03:35;99834.53;;;21.32;50.37
17060;BME280;8646;49.716;9.266;2023-05-10T13:06:43;99836.84;;;21.46;50.42
17060;BME280;8646;49.716;9.266;2023-05-10T13:09:45;99839.28;;;21.68;49.79
17060;BME280;8646;49.716;9.266;2023-05-10T13:12:48;99834.88;;;21.85;49.50
17060;BME280;8646;49.716;9.266;2023-05-10T13:15:51;99835.00;;;22.03;49.29
17060;BME280;8646;49.716;9.266;2023-05-10T13:18:54;99832.34;;;22.21;48.73
17060;BME280;8646;49.716;9.266;2023-05-10T13:21:58;99829.22;;;22.33;48.53
17060;BME280;8646;49.716;9.266;2023-05-10T13:25:00;99838.44;;;22.52;47.87
17060;BME280;8646;49.716;9.266;2023-05-10T13:28:04;99832.97;;;22.69;47.76
17060;BME280;8646;49.716;9.266;2023-05-10T13:31:06;99814.31;;;22.81;47.01
17060;BME280;8646;49.716;9.266;2023-05-10T13:34:11;99833.81;;;22.97;46.24
17060;BME280;8646;49.716;9.266;2023-05-10T13:37:18;99821.53;;;23.09;46.10
17060;BME280;8646;49.716;9.266;2023-05-10T13:40:21;99826.25;;;23.17;45.49
17060;BME280;8646;49.716;9.266;2023-05-10T13:43:23;99824.13;;;23.11;45.04
17060;BME280;8646;49.716;9.266;2023-05-10T13:46:26;99822.84;;;23.05;45.33
17060;BME280;8646;49.716;9.266;2023-05-10T13:49:31;99825.31;;;23.08;44.67
17060;BME280;8646;49.716;9.266;2023-05-10T13:52:36;99823.00;;;23.04;44.26
17060;BME280;8646;49.716;9.266;2023-05-10T13:55:39;99821.44;;;23.01;43.71
17060;BME280;8646;49.716;9.266;2023-05-10T13:58:42;99830.25;;;22.87;43.65
17060;BME280;8646;49.716;9.266;2023-05-10T14:01:47;99817.97;;;22.72;43.36
17060;BME280;8646;49.716;9.266;2023-05-10T14:04:50;99834.31;;;22.56;43.62
17060;BME280;8646;49.716;9.266;2023-05-10T14:07:54;99825.16;;;22.37;43.59
17060;BME280;8646;49.716;9.266;2023-05-10T14:10:57;99822.34;;;22.20;43.88
17060;BME280;8646;49.716;9.266;2023-05-10T14:14:00;99819.63;;;22.10;45.04
17060;BME280;8646;49.716;9.266;2023-05-10T14:17:03;99824.41;;;22.08;45.91
17060;BME280;8646;49.716;9.266;2023-05-10T14:20:07;99820.91;;;22.06;46.04
17060;BME280;8646;49.716;9.266;2023-05-10T14:23:11;99821.66;;;22.08;46.06
17060;BME280;8646;49.716;9.266;2023-05-10T14:26:14;99814.25;;;22.08;46.23
17060;BME280;8646;49.716;9.266;2023-05-10T14:29:17;99819.16;;;22.15;46.24
17060;BME280;8646;49.716;9.266;2023-05-10T14:32:20;99811.91;;;22.14;45.99
17060;BME280;8646;49.716;9.266;2023-05-10T14:35:23;99815.81;;;22.21;46.33
17060;BME280;8646;49.716;9.266;2023-05-10T14:38:27;99808.84;;;22.17;46.66
17060;BME280;8646;49.716;9.266;2023-05-10T14:41:30;99790.72;;;22.14;46.98
17060;BME280;8646;49.716;9.266;2023-05-10T14:44:33;99810.91;;;22.42;46.98
17060;BME280;8646;49.716;9.266;2023-05-10T14:47:36;99814.63;;;22.51;46.99
17060;BME280;8646;49.716;9.266;2023-05-10T14:50:38;99803.50;;;22.42;46.48
17060;BME280;8646;49.716;9.266;2023-05-10T14:53:42;99799.94;;;22.32;46.27
17060;BME280;8646;49.716;9.266;2023-05-10T14:56:45;99809.22;;;22.31;45.62
17060;BME280;8646;49.716;9.266;2023-05-10T14:59:50;99818.50;;;22.30;45.40
17060;BME280;8646;49.716;9.266;2023-05-10T15:02:53;99813.44;;;22.26;45.65
17060;BME280;8646;49.716;9.266;2023-05-10T15:05:56;99812.47;;;22.17;45.49
17060;BME280;8646;49.716;9.266;2023-05-10T15:09:01;99816.16;;;21.98;45.85
17060;BME280;8646;49.716;9.266;2023-05-10T15:12:05;99814.88;;;21.83;46.37
17060;BME280;8646;49.716;9.266;2023-05-10T15:15:08;99807.69;;;21.73;46.73
17060;BME280;8646;49.716;9.266;2023-05-10T15:18:10;99826.09;;;21.72;47.24
17060;BME280;8646;49.716;9.266;2023-05-10T15:21:13;99826.22;;;21.80;47.55
17060;BME280;8646;49.716;9.266;2023-05-10T15:24:17;99822.72;;;21.88;47.37
17060;BME280;8646;49.716;9.266;2023-05-10T15:27:20;99829.53;;;21.84;47.50
17060;BME280;8646;49.716;9.266;2023-05-10T15:30:23;99835.16;;;21.82;47.61
17060;BME280;8646;49.716;9.266;2023-05-10T15:33:26;99838.38;;;21.78;47.99
17060;BME280;8646;49.716;9.266;2023-05-10T15:36:29;99835.78;;;21.76;47.90
17060;BME280;8646;49.716;9.266;2023-05-10T15:39:34;99835.03;;;21.74;47.74
17060;BME280;8646;49.716;9.266;2023-05-10T15:42:37;99834.78;;;21.67;47.89
17060;BME280;8646;49.716;9.266;2023-05-10T15:45:39;99839.00;;;21.62;47.87
17060;BME280;8646;49.716;9.266;2023-05-10T15:48:42;99843.03;;;21.58;48.06
17060;BME280;8646;49.716;9.266;2023-05-10T15:51:45;99847.72;;;21.48;47.91
17060;BME280;8646;49.716;9.266;2023-05-10T15:54:49;99843.94;;;21.39;47.83
17060;BME280;8646;49.716;9.266;2023-05-10T15:57:53;99849.13;;;21.32;48.20
17060;BME280;8646;49.716;9.266;2023-05-10T16:00:59;99850.00;;;21.33;47.96
17060;BME280;8646;49.716;9.266;2023-05-10T16:04:03;99849.00;;;21.34;47.68
17060;BME280;8646;49.716;9.266;2023-05-10T16:07:06;99850.31;;;21.30;47.43
17060;BME280;8646;49.716;9.266;2023-05-10T16:10:10;99843.34;;;21.26;45.83
17060;BME280;8646;49.716;9.266;2023-05-10T16:13:13;99853.66;;;21.24;45.57
17060;BME280;8646;49.716;9.266;2023-05-10T16:16:17;99851.34;;;21.29;45.36
17060;BME280;8646;49.716;9.266;2023-05-10T16:19:20;99850.00;;;21.33;45.01
17060;BME280;8646;49.716;9.266;2023-05-10T16:22:24;99853.22;;;21.28;45.29
17060;BME280;8646;49.716;9.266;2023-05-10T16:25:29;99861.47;;;21.38;45.45
17060;BME280;8646;49.716;9.266;2023-05-10T16:28:31;99850.31;;;21.40;45.59
17060;BME280;8646;49.716;9.266;2023-05-10T16:31:34;99863.22;;;21.39;45.46
17060;BME280;8646;49.716;9.266;2023-05-10T16:34:37;99858.13;;;21.35;45.73
17060;BME280;8646;49.716;9.266;2023-05-10T16:37:40;99860.59;;;21.28;44.67